KLIMATOLOGI DAS SOKLAT BOHUSAMI

Tanggal Temperature (oC) RH (%) PAN 'A' Kecepatan Angin (KM/hari) Sinar Matahari (%) Hujan Biasa (mm)
Max Min Rata-rata Temp Air Dlm Tangki (oC) Penguapan (mm)
2021-12-31 29.5 23.6 26.55 94 28 4.6 69.6 29.95 27.6
2021-12-30 29.5 23.6 26.55 94 28 2 92.4 30.81 41
2021-12-29 32.5 22 27.25 90 30 4 79.7 54.95 0
2021-12-28 32.5 22 27.25 92 29.5 2 55.6 3.33 24
2021-12-27 32.5 22.4 27.45 96 29.5 5 95.4 38.3 1
2021-12-26 32.5 22.8 27.65 92 30 4 54.5 23.31 0.01
2021-12-25 32.5 23 27.75 94 30 2.2 66.6 62.45 8.2
2021-12-24 32.5 23 27.75 94 30 2.4 64 49.13 9.4
2021-12-23 32.5 23.4 27.95 96 29.5 2 81.3 54.95 26
2021-12-22 32.5 23.6 28.05 94 29.5 2.2 96.4 49.96 5.2
2021-12-21 31.5 24 27.75 92 30 4 95.2 19.15 0.01
2021-12-20 31.5 24.2 27.85 96 30 2.2 67.7 16.65 21.2
2021-12-19 31.5 25 28.25 94 30 2.6 97.2 52.46 17.6
2021-12-18 34.5 24.8 29.65 94 31 2.4 102.7 59.95 6.4
2021-12-17 34.5 25.6 30.05 87 30.5 5 82.4 79.1 0
2021-12-16 34 23.6 28.8 87 29.5 2.6 114 72.44 10.6
2021-12-15 33.5 23.6 28.55 78.2 29.5 4 94.1 50.37 0
2021-12-14 33.5 24 28.75 90 29.5 3 85.9 54.5 0
2021-12-13 33.5 24 28.75 92 30 2.8 88.5 55.33 21.8
2021-12-12 33.5 24.2 28.85 89 29 4 85.5 64.41 0
2021-12-11 33.5 24.6 29.05 84.6 29 2.4 105.2 0 34.4
2021-12-10 33.5 24.8 29.15 83 30 5 106.7 75.97 0
2021-12-09 33 25.8 29.4 81.8 30.5 6.8 121.8 78.45 19.8
2021-12-08 33.5 24 28.75 74.8 30 4 99.9 42.94 0
2021-12-07 33.5 24 28.75 83 30 5 134.8 22.3 0
2021-12-06 33.5 24.2 28.85 89 30 4 85.6 67.71 0
2021-12-05 33.5 24.2 28.85 77.6 30 2 62.3 29.73 0
2021-12-04 33.5 24.4 28.95 89 30.5 2.8 84.4 12.39 8.8
2021-12-03 33.5 24.4 28.95 96 30.5 2.6 115.7 59.45 22.6
2021-12-02 32 25 28.5 89 30.5 5 86.4 59.45 0.01
2021-12-01 33.5 23.8 28.65 83 30.5 4 85.2 44.59 0.01